createdAt,value
2022-10-22T06:39:55.049Z,14.00
2022-10-22T06:42:22.842Z,14.00
2022-10-22T06:44:50.752Z,14.00
2022-10-22T06:47:18.644Z,14.00
2022-10-22T06:49:46.510Z,14.00
2022-10-22T06:52:14.339Z,14.00
2022-10-22T06:54:42.216Z,14.00
2022-10-22T06:57:11.368Z,14.00
2022-10-22T06:59:39.204Z,14.00
2022-10-22T07:02:07.107Z,14.00
2022-10-22T07:04:34.926Z,14.00
2022-10-22T07:07:02.760Z,14.00
2022-10-22T07:09:30.813Z,14.00
2022-10-22T07:11:58.627Z,13.90
2022-10-22T07:14:27.791Z,13.90
2022-10-22T07:16:55.700Z,13.90
2022-10-22T07:19:23.633Z,13.90
2022-10-22T07:21:51.510Z,13.90
2022-10-22T07:24:19.358Z,13.90
2022-10-22T07:26:47.211Z,13.90
2022-10-22T07:29:16.359Z,13.90
2022-10-22T07:31:45.593Z,13.90
2022-10-22T07:34:13.463Z,13.90
2022-10-22T07:36:41.447Z,13.90
2022-10-22T07:39:09.319Z,13.90
2022-10-22T07:41:37.389Z,13.90
2022-10-22T07:44:05.529Z,13.90
2022-10-22T07:46:35.160Z,13.90
2022-10-22T07:49:04.367Z,13.90
2022-10-22T07:51:32.272Z,13.90
2022-10-22T07:54:00.101Z,13.90
2022-10-22T07:56:27.946Z,13.90
2022-10-22T07:58:55.875Z,13.90
2022-10-22T08:01:23.766Z,13.90
2022-10-22T08:03:51.800Z,14.00
2022-10-22T08:06:21.003Z,13.90
2022-10-22T08:08:49.488Z,14.00
2022-10-22T08:11:17.330Z,14.00
2022-10-22T08:13:45.921Z,14.00
2022-10-22T08:16:14.491Z,14.00
2022-10-22T08:18:42.842Z,14.00
2022-10-22T08:21:10.828Z,14.10
2022-10-22T08:23:40.430Z,14.10
2022-10-22T08:26:08.295Z,14.10
2022-10-22T08:28:37.157Z,14.10
2022-10-22T08:31:06.083Z,14.10
2022-10-22T08:33:34.015Z,14.20
2022-10-22T08:36:01.921Z,14.20
2022-10-22T08:38:31.256Z,14.20
2022-10-22T08:41:09.695Z,14.20
2022-10-22T08:43:52.967Z,14.20
2022-10-22T08:47:00.132Z,14.30
2022-10-22T08:49:31.141Z,14.30
2022-10-22T08:52:00.223Z,14.30
2022-10-22T08:54:34.813Z,14.40
2022-10-22T08:57:24.186Z,14.40
2022-10-22T08:59:59.056Z,14.40
2022-10-22T09:02:38.522Z,14.40
2022-10-22T09:05:20.348Z,14.50
2022-10-22T09:07:50.357Z,14.50
2022-10-22T09:10:20.330Z,14.50
2022-10-22T09:12:50.051Z,14.60
2022-10-22T09:15:19.766Z,14.60
2022-10-22T09:17:59.282Z,14.60
2022-10-22T09:20:33.322Z,14.60
2022-10-22T09:23:18.598Z,14.60
2022-10-22T09:25:49.088Z,14.70
2022-10-22T09:28:18.811Z,14.70
2022-10-22T09:30:46.699Z,14.80
2022-10-22T09:33:21.467Z,14.80
2022-10-22T09:36:07.730Z,14.80
2022-10-22T09:38:41.307Z,14.90
2022-10-22T16:34:53.396Z,17.90
2022-10-22T16:37:21.232Z,17.80
2022-10-22T16:39:49.733Z,17.80
2022-10-22T16:42:17.526Z,17.70
2022-10-22T16:44:45.324Z,17.70
2022-10-22T16:47:13.124Z,17.60
2022-10-22T16:49:40.918Z,17.60
2022-10-22T16:52:10.167Z,17.60
2022-10-22T16:54:38.040Z,17.60
2022-10-22T16:57:05.823Z,17.50
